sensor_id;sensor_type;location;lat;lon;timestamp;pressure;altitude;pressure_sealevel;temperature;humidity
17054;BME280;8643;48.824;11.422;2024-03-23T00:54:21;96305.38;;;6.22;100.00
17054;BME280;8643;48.824;11.422;2024-03-23T00:56:48;96297.84;;;6.19;100.00
17054;BME280;8643;48.824;11.422;2024-03-23T00:59:15;96287.13;;;5.96;100.00
17054;BME280;8643;48.824;11.422;2024-03-23T01:01:41;96293.06;;;6.07;100.00
17054;BME280;8643;48.824;11.422;2024-03-23T01:04:09;96292.91;;;6.03;100.00
17054;BME280;8643;48.824;11.422;2024-03-23T01:06:35;96292.59;;;6.14;100.00
17054;BME280;8643;48.824;11.422;2024-03-23T01:09:04;96284.09;;;6.24;100.00
17054;BME280;8643;48.824;11.422;2024-03-23T01:11:30;96275.81;;;6.29;100.00
17054;BME280;8643;48.824;11.422;2024-03-23T01:13:58;96269.41;;;6.25;100.00
17054;BME280;8643;48.824;11.422;2024-03-23T01:16:24;96257.22;;;6.22;100.00
17054;BME280;8643;48.824;11.422;2024-03-23T01:18:52;96259.81;;;6.28;100.00
17054;BME280;8643;48.824;11.422;2024-03-23T01:21:18;96252.44;;;6.11;100.00
17054;BME280;8643;48.824;11.422;2024-03-23T01:23:45;96263.78;;;6.04;100.00
17054;BME280;8643;48.824;11.422;2024-03-23T01:26:13;96260.28;;;6.03;100.00
17054;BME280;8643;48.824;11.422;2024-03-23T01:28:41;96262.03;;;5.99;100.00
17054;BME280;8643;48.824;11.422;2024-03-23T01:31:07;96257.41;;;6.17;100.00
17054;BME280;8643;48.824;11.422;2024-03-23T01:33:34;96252.47;;;6.19;100.00
17054;BME280;8643;48.824;11.422;2024-03-23T01:36:01;96251.00;;;6.04;100.00
17054;BME280;8643;48.824;11.422;2024-03-23T01:38:29;96258.63;;;5.85;100.00
17054;BME280;8643;48.824;11.422;2024-03-23T01:40:57;96248.22;;;5.78;100.00
17054;BME280;8643;48.824;11.422;2024-03-23T01:43:26;96254.63;;;5.74;100.00
17054;BME280;8643;48.824;11.422;2024-03-23T01:45:52;96260.69;;;5.71;100.00
17054;BME280;8643;48.824;11.422;2024-03-23T01:48:21;96253.03;;;5.64;100.00
17054;BME280;8643;48.824;11.422;2024-03-23T01:50:47;96243.09;;;5.59;100.00
17054;BME280;8643;48.824;11.422;2024-03-23T01:53:15;96237.00;;;5.54;100.00
17054;BME280;8643;48.824;11.422;2024-03-23T01:55:43;96240.84;;;5.53;100.00
17054;BME280;8643;48.824;11.422;2024-03-23T01:58:11;96240.97;;;5.39;100.00
17054;BME280;8643;48.824;11.422;2024-03-23T02:00:39;96230.25;;;5.33;100.00
17054;BME280;8643;48.824;11.422;2024-03-23T02:03:25;96228.63;;;5.32;100.00
17054;BME280;8643;48.824;11.422;2024-03-23T02:05:53;96220.31;;;5.29;100.00
17054;BME280;8643;48.824;11.422;2024-03-23T02:08:23;96216.59;;;5.07;100.00
17054;BME280;8643;48.824;11.422;2024-03-23T02:10:51;96223.28;;;5.10;100.00
17054;BME280;8643;48.824;11.422;2024-03-23T02:13:19;96219.16;;;5.12;100.00
17054;BME280;8643;48.824;11.422;2024-03-23T02:15:47;96214.84;;;5.11;100.00
17054;BME280;8643;48.824;11.422;2024-03-23T02:18:14;96209.25;;;5.08;100.00
17054;BME280;8643;48.824;11.422;2024-03-23T02:20:41;96206.53;;;5.08;100.00
17054;BME280;8643;48.824;11.422;2024-03-23T02:23:15;96202.34;;;5.02;100.00
17054;BME280;8643;48.824;11.422;2024-03-23T02:25:41;96199.16;;;5.00;100.00
17054;BME280;8643;48.824;11.422;2024-03-23T02:28:08;96188.31;;;5.00;100.00
17054;BME280;8643;48.824;11.422;2024-03-23T02:30:35;96188.63;;;4.98;100.00
17054;BME280;8643;48.824;11.422;2024-03-23T02:33:03;96181.63;;;5.06;100.00
17054;BME280;8643;48.824;11.422;2024-03-23T02:35:30;96182.09;;;5.08;100.00
17054;BME280;8643;48.824;11.422;2024-03-23T02:37:58;96183.41;;;5.19;100.00
17054;BME280;8643;48.824;11.422;2024-03-23T02:40:28;96172.88;;;5.18;100.00
17054;BME280;8643;48.824;11.422;2024-03-23T02:42:56;96165.88;;;5.25;100.00
17054;BME280;8643;48.824;11.422;2024-03-23T02:45:23;96159.66;;;5.33;100.00
17054;BME280;8643;48.824;11.422;2024-03-23T02:47:50;96158.22;;;5.27;100.00
17054;BME280;8643;48.824;11.422;2024-03-23T02:50:18;96163.47;;;5.32;100.00
17054;BME280;8643;48.824;11.422;2024-03-23T02:52:45;96157.25;;;5.32;100.00
17054;BME280;8643;48.824;11.422;2024-03-23T02:55:13;96150.88;;;5.45;100.00
17054;BME280;8643;48.824;11.422;2024-03-23T02:57:42;96142.09;;;5.40;100.00
17054;BME280;8643;48.824;11.422;2024-03-23T03:00:10;96138.91;;;5.38;100.00
17054;BME280;8643;48.824;11.422;2024-03-23T03:02:37;96140.19;;;5.40;100.00
17054;BME280;8643;48.824;11.422;2024-03-23T03:05:05;96144.19;;;5.43;100.00
17054;BME280;8643;48.824;11.422;2024-03-23T03:07:32;96136.84;;;5.43;100.00
17054;BME280;8643;48.824;11.422;2024-03-23T03:10:00;96129.31;;;5.40;100.00
17054;BME280;8643;48.824;11.422;2024-03-23T03:12:26;96112.88;;;5.37;100.00
17054;BME280;8643;48.824;11.422;2024-03-23T03:14:55;96118.47;;;5.49;100.00
17054;BME280;8643;48.824;11.422;2024-03-23T03:17:22;96108.25;;;5.72;100.00
17054;BME280;8643;48.824;11.422;2024-03-23T03:19:50;96111.75;;;5.90;100.00
17054;BME280;8643;48.824;11.422;2024-03-23T03:22:21;96118.16;;;6.12;100.00
17054;BME280;8643;48.824;11.422;2024-03-23T03:24:50;96117.44;;;6.32;100.00
17054;BME280;8643;48.824;11.422;2024-03-23T03:27:16;96097.44;;;6.37;100.00
17054;BME280;8643;48.824;11.422;2024-03-23T03:29:44;96103.69;;;6.37;100.00
17054;BME280;8643;48.824;11.422;2024-03-23T03:32:12;96099.09;;;6.29;100.00
17054;BME280;8643;48.824;11.422;2024-03-23T03:34:39;96083.09;;;6.19;100.00
17054;BME280;8643;48.824;11.422;2024-03-23T03:37:06;96074.66;;;6.12;100.00
17054;BME280;8643;48.824;11.422;2024-03-23T03:39:35;96067.00;;;5.96;100.00
17054;BME280;8643;48.824;11.422;2024-03-23T03:42:02;96077.88;;;5.96;100.00
17054;BME280;8643;48.824;11.422;2024-03-23T03:44:33;96079.31;;;6.02;100.00
17054;BME280;8643;48.824;11.422;2024-03-23T03:46:59;96082.03;;;5.94;100.00
17054;BME280;8643;48.824;11.422;2024-03-23T03:49:28;96079.78;;;5.87;100.00
17054;BME280;8643;48.824;11.422;2024-03-23T03:51:54;96073.22;;;5.88;100.00
17054;BME280;8643;48.824;11.422;2024-03-23T03:54:22;96081.88;;;5.90;100.00
17054;BME280;8643;48.824;11.422;2024-03-23T03:56:48;96071.47;;;5.92;100.00
17054;BME280;8643;48.824;11.422;2024-03-23T03:59:17;96070.19;;;6.07;100.00
17054;BME280;8643;48.824;11.422;2024-03-23T04:01:43;96067.44;;;6.24;100.00
17054;BME280;8643;48.824;11.422;2024-03-23T04:04:11;96057.94;;;6.39;100.00
17054;BME280;8643;48.824;11.422;2024-03-23T04:06:39;96063.97;;;6.45;100.00
17054;BME280;8643;48.824;11.422;2024-03-23T04:09:07;96052.44;;;6.57;100.00
17054;BME280;8643;48.824;11.422;2024-03-23T04:11:34;96041.50;;;6.66;100.00
17054;BME280;8643;48.824;11.422;2024-03-23T04:14:01;96042.25;;;6.75;100.00
17054;BME280;8643;48.824;11.422;2024-03-23T04:16:30;96033.06;;;6.79;100.00
17054;BME280;8643;48.824;11.422;2024-03-23T04:18:58;96028.59;;;6.84;100.00
17054;BME280;8643;48.824;11.422;2024-03-23T04:21:25;96027.94;;;6.87;100.00
17054;BME280;8643;48.824;11.422;2024-03-23T04:23:54;96028.38;;;6.89;100.00
17054;BME280;8643;48.824;11.422;2024-03-23T04:26:20;96037.50;;;6.93;100.00
17054;BME280;8643;48.824;11.422;2024-03-23T04:28:48;96033.94;;;7.01;100.00
17054;BME280;8643;48.824;11.422;2024-03-23T04:31:14;96028.19;;;6.94;100.00
17054;BME280;8643;48.824;11.422;2024-03-23T04:33:42;96018.81;;;6.83;100.00
17054;BME280;8643;48.824;11.422;2024-03-23T04:36:08;96026.19;;;6.82;100.00
17054;BME280;8643;48.824;11.422;2024-03-23T04:38:36;96028.00;;;6.78;100.00
17054;BME280;8643;48.824;11.422;2024-03-23T04:41:05;96021.59;;;6.74;100.00
17054;BME280;8643;48.824;11.422;2024-03-23T04:43:33;96015.50;;;6.77;100.00
17054;BME280;8643;48.824;11.422;2024-03-23T04:46:00;96019.97;;;6.82;100.00
17054;BME280;8643;48.824;11.422;2024-03-23T04:48:27;96018.03;;;6.82;100.00
17054;BME280;8643;48.824;11.422;2024-03-23T04:50:55;96016.25;;;6.86;100.00
17054;BME280;8643;48.824;11.422;2024-03-23T04:53:24;96008.81;;;6.95;100.00
17054;BME280;8643;48.824;11.422;2024-03-23T04:55:55;96016.19;;;6.95;100.00
17054;BME280;8643;48.824;11.422;2024-03-23T04:58:23;96015.66;;;7.02;100.00
17054;BME280;8643;48.824;11.422;2024-03-23T05:00:54;96010.88;;;6.98;100.00
17054;BME280;8643;48.824;11.422;2024-03-23T05:03:21;95996.69;;;6.93;100.00
17054;BME280;8643;48.824;11.422;2024-03-23T05:05:49;95988.75;;;6.79;100.00
17054;BME280;8643;48.824;11.422;2024-03-23T05:08:15;95991.53;;;6.70;100.00
17054;BME280;8643;48.824;11.422;2024-03-23T05:10:43;95977.84;;;6.58;100.00
17054;BME280;8643;48.824;11.422;2024-03-23T05:13:10;95988.13;;;6.52;100.00
17054;BME280;8643;48.824;11.422;2024-03-23T05:15:39;95990.38;;;6.50;100.00
17054;BME280;8643;48.824;11.422;2024-03-23T05:18:06;95986.53;;;6.51;100.00
17054;BME280;8643;48.824;11.422;2024-03-23T05:20:34;95982.88;;;6.47;100.00
17054;BME280;8643;48.824;11.422;2024-03-23T05:23:00;95983.22;;;6.46;100.00
17054;BME280;8643;48.824;11.422;2024-03-23T05:25:27;95970.91;;;6.39;100.00
17054;BME280;8643;48.824;11.422;2024-03-23T05:27:54;95970.47;;;6.29;100.00
17054;BME280;8643;48.824;11.422;2024-03-23T05:30:21;95972.28;;;6.16;100.00
17054;BME280;8643;48.824;11.422;2024-03-23T05:32:49;95969.94;;;6.05;100.00
17054;BME280;8643;48.824;11.422;2024-03-23T05:35:16;95972.72;;;5.97;100.00
17054;BME280;8643;48.824;11.422;2024-03-23T05:37:43;95954.31;;;5.94;100.00
17054;BME280;8643;48.824;11.422;2024-03-23T05:40:12;95952.41;;;5.85;100.00
17054;BME280;8643;48.824;11.422;2024-03-23T05:42:41;95945.56;;;5.79;100.00
17054;BME280;8643;48.824;11.422;2024-03-23T05:45:09;95948.28;;;5.79;100.00
17054;BME280;8643;48.824;11.422;2024-03-23T05:47:35;95937.91;;;5.73;100.00
17054;BME280;8643;48.824;11.422;2024-03-23T05:50:05;95925.25;;;5.77;100.00
17054;BME280;8643;48.824;11.422;2024-03-23T05:52:32;95922.22;;;5.87;100.00
17054;BME280;8643;48.824;11.422;2024-03-23T05:54:59;95910.38;;;5.83;100.00
17054;BME280;8643;48.824;11.422;2024-03-23T05:57:26;95899.81;;;5.90;100.00
17054;BME280;8643;48.824;11.422;2024-03-23T05:59:54;95893.53;;;6.07;100.00
17054;BME280;8643;48.824;11.422;2024-03-23T06:02:20;95898.34;;;6.31;100.00
17054;BME280;8643;48.824;11.422;2024-03-23T06:04:47;95897.56;;;6.73;100.00
17054;BME280;8643;48.824;11.422;2024-03-23T06:07:15;95888.81;;;7.22;100.00
17054;BME280;8643;48.824;11.422;2024-03-23T06:09:43;95877.38;;;7.74;100.00
17054;BME280;8643;48.824;11.422;2024-03-23T06:12:09;95868.59;;;8.30;100.00
17054;BME280;8643;48.824;11.422;2024-03-23T06:14:37;95861.66;;;8.98;100.00
17054;BME280;8643;48.824;11.422;2024-03-23T06:17:04;95864.22;;;9.51;100.00
17054;BME280;8643;48.824;11.422;2024-03-23T06:19:32;95871.56;;;9.95;100.00
17054;BME280;8643;48.824;11.422;2024-03-23T06:21:58;95862.47;;;10.58;100.00
17054;BME280;8643;48.824;11.422;2024-03-23T06:24:27;95871.94;;;11.19;100.00
17054;BME280;8643;48.824;11.422;2024-03-23T06:26:53;95867.78;;;11.48;100.00
17054;BME280;8643;48.824;11.422;2024-03-23T06:29:21;95866.66;;;11.30;100.00
17054;BME280;8643;48.824;11.422;2024-03-23T06:31:54;95870.56;;;10.70;100.00
17054;BME280;8643;48.824;11.422;2024-03-23T06:34:21;95870.72;;;10.26;100.00
17054;BME280;8643;48.824;11.422;2024-03-23T06:36:49;95871.78;;;10.05;100.00
17054;BME280;8643;48.824;11.422;2024-03-23T06:39:16;95876.66;;;9.80;100.00
17054;BME280;8643;48.824;11.422;2024-03-23T06:41:53;95855.66;;;9.52;100.00
17054;BME280;8643;48.824;11.422;2024-03-23T06:44:21;95854.34;;;9.46;100.00
17054;BME280;8643;48.824;11.422;2024-03-23T06:46:47;95850.03;;;9.45;100.00
17054;BME280;8643;48.824;11.422;2024-03-23T06:49:15;95861.75;;;9.46;100.00
17054;BME280;8643;48.824;11.422;2024-03-23T06:51:42;95863.06;;;9.36;100.00
17054;BME280;8643;48.824;11.422;2024-03-23T06:54:09;95867.38;;;9.37;100.00
17054;BME280;8643;48.824;11.422;2024-03-23T06:56:37;95870.00;;;9.33;100.00
17054;BME280;8643;48.824;11.422;2024-03-23T06:59:05;95883.03;;;9.24;100.00
17054;BME280;8643;48.824;11.422;2024-03-23T07:01:32;95908.56;;;9.16;100.00
17054;BME280;8643;48.824;11.422;2024-03-23T07:03:59;95919.53;;;9.04;100.00
17054;BME280;8643;48.824;11.422;2024-03-23T07:06:26;95921.63;;;8.82;100.00
17054;BME280;8643;48.824;11.422;2024-03-23T07:08:53;95927.09;;;8.82;100.00
17054;BME280;8643;48.824;11.422;2024-03-23T07:11:21;95932.13;;;8.80;100.00
17054;BME280;8643;48.824;11.422;2024-03-23T07:13:50;95934.75;;;8.64;100.00
17054;BME280;8643;48.824;11.422;2024-03-23T07:16:19;95937.34;;;8.73;100.00
17054;BME280;8643;48.824;11.422;2024-03-23T07:18:46;95957.25;;;8.73;100.00
17054;BME280;8643;48.824;11.422;2024-03-23T07:21:15;95971.81;;;8.77;100.00
17054;BME280;8643;48.824;11.422;2024-03-23T07:23:42;95975.41;;;8.81;100.00
17054;BME280;8643;48.824;11.422;2024-03-23T07:26:11;95995.13;;;8.62;100.00
17054;BME280;8643;48.824;11.422;2024-03-23T07:28:38;95990.53;;;8.42;100.00
17054;BME280;8643;48.824;11.422;2024-03-23T07:31:11;96012.94;;;8.23;100.00
17054;BME280;8643;48.824;11.422;2024-03-23T07:33:43;96025.66;;;8.19;100.00
17054;BME280;8643;48.824;11.422;2024-03-23T07:36:11;96029.38;;;8.14;100.00
17054;BME280;8643;48.824;11.422;2024-03-23T07:38:40;96015.53;;;8.07;100.00
17054;BME280;8643;48.824;11.422;2024-03-23T07:41:09;96044.69;;;7.94;100.00
17054;BME280;8643;48.824;11.422;2024-03-23T07:43:38;96034.28;;;7.75;100.00
17054;BME280;8643;48.824;11.422;2024-03-23T07:46:06;96037.53;;;7.68;100.00
17054;BME280;8643;48.824;11.422;2024-03-23T07:48:33;96046.94;;;7.59;100.00
17054;BME280;8643;48.824;11.422;2024-03-23T07:51:04;96054.78;;;7.60;100.00
17054;BME280;8643;48.824;11.422;2024-03-23T07:53:31;96044.53;;;7.57;100.00
17054;BME280;8643;48.824;11.422;2024-03-23T07:56:01;96033.06;;;7.51;100.00
17054;BME280;8643;48.824;11.422;2024-03-23T07:58:28;96035.31;;;7.49;100.00
17054;BME280;8643;48.824;11.422;2024-03-23T08:01:03;96036.44;;;7.48;100.00
17054;BME280;8643;48.824;11.422;2024-03-23T08:03:31;96054.91;;;7.43;100.00
17054;BME280;8643;48.824;11.422;2024-03-23T08:05:58;96048.53;;;7.39;100.00
17054;BME280;8643;48.824;11.422;2024-03-23T08:08:27;96049.34;;;7.39;100.00
17054;BME280;8643;48.824;11.422;2024-03-23T08:10:53;96048.66;;;7.42;100.00
17054;BME280;8643;48.824;11.422;2024-03-23T08:13:21;96064.47;;;7.49;100.00
17054;BME280;8643;48.824;11.422;2024-03-23T08:15:48;96062.53;;;7.49;100.00
17054;BME280;8643;48.824;11.422;2024-03-23T08:18:15;96058.50;;;7.56;100.00
17054;BME280;8643;48.824;11.422;2024-03-23T08:20:42;96065.91;;;7.67;100.00
17054;BME280;8643;48.824;11.422;2024-03-23T08:23:09;96063.00;;;7.73;100.00
17054;BME280;8643;48.824;11.422;2024-03-23T08:25:37;96065.53;;;7.78;100.00
17054;BME280;8643;48.824;11.422;2024-03-23T08:28:05;96068.50;;;7.85;100.00
17054;BME280;8643;48.824;11.422;2024-03-23T08:30:35;96070.13;;;7.98;100.00
17054;BME280;8643;48.824;11.422;2024-03-23T08:33:03;96057.00;;;8.13;100.00
17054;BME280;8643;48.824;11.422;2024-03-23T08:35:30;96057.13;;;8.29;100.00
17054;BME280;8643;48.824;11.422;2024-03-23T08:37:58;96058.88;;;8.46;100.00
17054;BME280;8643;48.824;11.422;2024-03-23T08:40:24;96066.72;;;8.47;100.00
17054;BME280;8643;48.824;11.422;2024-03-23T08:42:53;96052.88;;;8.65;100.00
17054;BME280;8643;48.824;11.422;2024-03-23T08:45:20;96065.97;;;8.84;100.00
17054;BME280;8643;48.824;11.422;2024-03-23T08:47:48;96076.91;;;8.84;100.00
17054;BME280;8643;48.824;11.422;2024-03-23T08:50:15;96090.44;;;9.05;100.00
17054;BME280;8643;48.824;11.422;2024-03-23T08:52:42;96097.56;;;9.09;100.00
17054;BME280;8643;48.824;11.422;2024-03-23T08:55:09;96120.69;;;8.99;100.00
17054;BME280;8643;48.824;11.422;2024-03-23T08:57:37;96139.78;;;8.75;100.00
17054;BME280;8643;48.824;11.422;2024-03-23T09:00:06;96141.44;;;8.55;100.00
17054;BME280;8643;48.824;11.422;2024-03-23T09:02:37;96140.41;;;8.47;100.00
17054;BME280;8643;48.824;11.422;2024-03-23T09:05:05;96144.50;;;8.53;100.00
17054;BME280;8643;48.824;11.422;2024-03-23T09:07:32;96121.00;;;8.61;100.00
17054;BME280;8643;48.824;11.422;2024-03-23T09:09:59;96125.78;;;8.64;100.00
17054;BME280;8643;48.824;11.422;2024-03-23T09:12:26;96120.22;;;8.73;100.00
17054;BME280;8643;48.824;11.422;2024-03-23T09:14:53;96112.38;;;9.08;100.00
17054;BME280;8643;48.824;11.422;2024-03-23T09:17:22;96111.56;;;9.20;100.00
17054;BME280;8643;48.824;11.422;2024-03-23T09:19:49;96115.09;;;9.21;100.00
17054;BME280;8643;48.824;11.422;2024-03-23T09:22:16;96122.16;;;9.22;100.00
17054;BME280;8643;48.824;11.422;2024-03-23T09:24:42;96139.97;;;9.56;100.00
17054;BME280;8643;48.824;11.422;2024-03-23T09:27:10;96132.75;;;9.35;100.00
17054;BME280;8643;48.824;11.422;2024-03-23T09:29:36;96133.66;;;9.15;100.00
17054;BME280;8643;48.824;11.422;2024-03-23T09:32:05;96147.09;;;9.08;100.00
17054;BME280;8643;48.824;11.422;2024-03-23T09:34:34;96148.44;;;9.26;100.00
17054;BME280;8643;48.824;11.422;2024-03-23T09:37:01;96158.81;;;9.45;100.00
17054;BME280;8643;48.824;11.422;2024-03-23T09:39:28;96158.22;;;9.52;100.00
17054;BME280;8643;48.824;11.422;2024-03-23T09:41:57;96152.75;;;9.52;100.00
17054;BME280;8643;48.824;11.422;2024-03-23T09:44:25;96136.38;;;9.40;100.00
17054;BME280;8643;48.824;11.422;2024-03-23T09:46:56;96167.56;;;9.14;100.00
17054;BME280;8643;48.824;11.422;2024-03-23T09:49:22;96173.69;;;8.86;100.00
17054;BME280;8643;48.824;11.422;2024-03-23T09:51:52;96163.47;;;8.95;100.00
17054;BME280;8643;48.824;11.422;2024-03-23T09:54:19;96167.22;;;9.03;100.00
17054;BME280;8643;48.824;11.422;2024-03-23T09:56:46;96182.94;;;9.31;100.00
17054;BME280;8643;48.824;11.422;2024-03-23T09:59:13;96192.22;;;9.79;100.00
17054;BME280;8643;48.824;11.422;2024-03-23T10:01:40;96197.72;;;11.40;100.00
17054;BME280;8643;48.824;11.422;2024-03-23T10:04:07;96219.34;;;10.25;100.00
17054;BME280;8643;48.824;11.422;2024-03-23T10:06:34;96211.59;;;9.12;100.00
17054;BME280;8643;48.824;11.422;2024-03-23T10:09:16;96235.13;;;8.92;100.00
17054;BME280;8643;48.824;11.422;2024-03-23T10:11:44;96245.88;;;9.22;100.00
17054;BME280;8643;48.824;11.422;2024-03-23T10:14:29;96238.16;;;9.49;100.00
17054;BME280;8643;48.824;11.422;2024-03-23T10:17:13;96249.31;;;9.31;100.00
17054;BME280;8643;48.824;11.422;2024-03-23T10:19:41;96258.28;;;9.20;100.00
17054;BME280;8643;48.824;11.422;2024-03-23T10:22:13;96258.13;;;9.04;100.00
17054;BME280;8643;48.824;11.422;2024-03-23T10:24:41;96244.66;;;8.86;100.00
17054;BME280;8643;48.824;11.422;2024-03-23T10:27:09;96251.41;;;9.01;100.00
17054;BME280;8643;48.824;11.422;2024-03-23T10:29:35;96260.41;;;9.02;100.00
17054;BME280;8643;48.824;11.422;2024-03-23T10:32:11;96263.25;;;8.72;100.00
17054;BME280;8643;48.824;11.422;2024-03-23T10:34:38;96259.69;;;8.80;100.00
17054;BME280;8643;48.824;11.422;2024-03-23T10:37:07;96260.72;;;8.54;100.00
17054;BME280;8643;48.824;11.422;2024-03-23T10:39:36;96271.50;;;8.30;100.00
17054;BME280;8643;48.824;11.422;2024-03-23T10:42:07;96281.00;;;8.23;100.00
17054;BME280;8643;48.824;11.422;2024-03-23T10:44:34;96273.47;;;8.20;100.00
17054;BME280;8643;48.824;11.422;2024-03-23T10:47:04;96297.03;;;8.25;100.00
17054;BME280;8643;48.824;11.422;2024-03-23T10:49:32;96298.34;;;8.19;100.00
17054;BME280;8643;48.824;11.422;2024-03-23T10:52:03;96286.66;;;8.18;100.00
17054;BME280;8643;48.824;11.422;2024-03-23T10:54:31;96278.16;;;8.20;100.00
17054;BME280;8643;48.824;11.422;2024-03-23T10:57:06;96261.13;;;8.23;100.00
17054;BME280;8643;48.824;11.422;2024-03-23T10:59:36;96263.81;;;7.81;100.00
17054;BME280;8643;48.824;11.422;2024-03-23T11:02:05;96234.28;;;7.83;100.00
17054;BME280;8643;48.824;11.422;2024-03-23T11:04:36;96249.91;;;7.95;100.00
17054;BME280;8643;48.824;11.422;2024-03-23T11:07:30;96255.13;;;8.30;100.00
17054;BME280;8643;48.824;11.422;2024-03-23T11:09:59;96262.16;;;8.73;100.00
17054;BME280;8643;48.824;11.422;2024-03-23T11:12:32;96282.09;;;9.44;100.00
17054;BME280;8643;48.824;11.422;2024-03-23T11:15:05;96298.09;;;8.75;100.00
17054;BME280;8643;48.824;11.422;2024-03-23T11:17:33;96310.03;;;9.62;100.00
17054;BME280;8643;48.824;11.422;2024-03-23T11:20:01;96310.34;;;9.48;98.44
17054;BME280;8643;48.824;11.422;2024-03-23T11:22:43;96288.25;;;9.90;94.54
17054;BME280;8643;48.824;11.422;2024-03-23T11:25:18;96303.41;;;9.50;92.63
17054;BME280;8643;48.824;11.422;2024-03-23T11:27:49;96305.66;;;8.90;91.10
17054;BME280;8643;48.824;11.422;2024-03-23T11:30:19;96307.56;;;8.56;90.83
17054;BME280;8643;48.824;11.422;2024-03-23T11:32:50;96303.75;;;8.70;93.02
17054;BME280;8643;48.824;11.422;2024-03-23T11:35:27;96305.06;;;9.30;91.13
17054;BME280;8643;48.824;11.422;2024-03-23T11:38:06;96304.78;;;9.94;87.82
17054;BME280;8643;48.824;11.422;2024-03-23T11:40:34;96324.22;;;10.29;84.85
17054;BME280;8643;48.824;11.422;2024-03-23T11:43:05;96316.84;;;10.17;85.19
17054;BME280;8643;48.824;11.422;2024-03-23T11:45:36;96311.78;;;10.56;83.65
17054;BME280;8643;48.824;11.422;2024-03-23T11:48:07;96319.00;;;10.12;81.38
17054;BME280;8643;48.824;11.422;2024-03-23T11:50:37;96326.44;;;10.64;78.11
17054;BME280;8643;48.824;11.422;2024-03-23T11:53:17;96344.41;;;9.87;79.26
17054;BME280;8643;48.824;11.422;2024-03-23T11:55:49;96341.00;;;9.66;78.37
17054;BME280;8643;48.824;11.422;2024-03-23T11:58:19;96341.75;;;9.29;81.05
17054;BME280;8643;48.824;11.422;2024-03-23T12:00:52;96308.97;;;8.96;80.17
17054;BME280;8643;48.824;11.422;2024-03-23T12:03:20;96331.81;;;8.91;82.72
17054;BME280;8643;48.824;11.422;2024-03-23T12:05:49;96328.91;;;8.96;82.32
17054;BME280;8643;48.824;11.422;2024-03-23T12:08:22;96322.44;;;9.47;80.54
17054;BME280;8643;48.824;11.422;2024-03-23T12:10:53;96313.25;;;10.54;75.17
17054;BME280;8643;48.824;11.422;2024-03-23T12:13:22;96320.03;;;11.45;71.06
17054;BME280;8643;48.824;11.422;2024-03-23T12:15:50;96312.78;;;12.91;65.88
17054;BME280;8643;48.824;11.422;2024-03-23T12:18:18;96320.56;;;10.90;69.08
17054;BME280;8643;48.824;11.422;2024-03-23T12:20:50;96299.88;;;9.62;69.75
17054;BME280;8643;48.824;11.422;2024-03-23T12:23:16;96283.13;;;9.39;72.69
17054;BME280;8643;48.824;11.422;2024-03-23T12:25:44;96276.72;;;9.23;70.30
17054;BME280;8643;48.824;11.422;2024-03-23T12:28:11;96293.84;;;9.44;73.20
17054;BME280;8643;48.824;11.422;2024-03-23T12:30:40;96317.88;;;9.63;74.31
17054;BME280;8643;48.824;11.422;2024-03-23T12:33:07;96331.06;;;9.61;74.00
17054;BME280;8643;48.824;11.422;2024-03-23T12:35:34;96312.19;;;9.93;70.56
17054;BME280;8643;48.824;11.422;2024-03-23T12:38:01;96322.41;;;10.74;64.58
17054;BME280;8643;48.824;11.422;2024-03-23T12:40:28;96307.16;;;10.73;66.28
17054;BME280;8643;48.824;11.422;2024-03-23T12:42:56;96301.56;;;10.16;65.53
17054;BME280;8643;48.824;11.422;2024-03-23T12:45:23;96301.81;;;9.74;66.90
17054;BME280;8643;48.824;11.422;2024-03-23T12:47:51;96303.63;;;9.58;68.44
17054;BME280;8643;48.824;11.422;2024-03-23T12:50:20;96298.25;;;9.24;66.11
17054;BME280;8643;48.824;11.422;2024-03-23T12:52:47;96316.28;;;9.04;67.01
17054;BME280;8643;48.824;11.422;2024-03-23T12:55:15;96304.56;;;9.04;67.32
17054;BME280;8643;48.824;11.422;2024-03-23T12:57:42;96307.50;;;8.98;66.39
17054;BME280;8643;48.824;11.422;2024-03-23T13:00:11;96304.44;;;9.00;67.25
17054;BME280;8643;48.824;11.422;2024-03-23T13:02:38;96314.84;;;8.86;65.68
17054;BME280;8643;48.824;11.422;2024-03-23T13:05:08;96316.66;;;8.81;68.29
17054;BME280;8643;48.824;11.422;2024-03-23T13:07:35;96325.13;;;8.68;68.33
17054;BME280;8643;48.824;11.422;2024-03-23T13:10:04;96322.63;;;8.62;68.41
17054;BME280;8643;48.824;11.422;2024-03-23T13:12:32;96324.00;;;8.69;69.67
17054;BME280;8643;48.824;11.422;2024-03-23T13:15:00;96318.91;;;8.46;69.57
17054;BME280;8643;48.824;11.422;2024-03-23T13:17:26;96317.88;;;8.30;69.52
17054;BME280;8643;48.824;11.422;2024-03-23T13:19:54;96316.47;;;8.23;69.86
17054;BME280;8643;48.824;11.422;2024-03-23T13:22:23;96318.41;;;7.93;71.30
17054;BME280;8643;48.824;11.422;2024-03-23T13:24:50;96333.91;;;7.71;73.01
17054;BME280;8643;48.824;11.422;2024-03-23T13:27:17;96341.38;;;7.83;74.33
17054;BME280;8643;48.824;11.422;2024-03-23T13:29:44;96346.31;;;7.90;74.26
17054;BME280;8643;48.824;11.422;2024-03-23T13:32:13;96330.28;;;7.59;80.63
17054;BME280;8643;48.824;11.422;2024-03-23T13:34:40;96344.69;;;7.21;85.55
17054;BME280;8643;48.824;11.422;2024-03-23T13:37:07;96344.84;;;7.07;88.87
17054;BME280;8643;48.824;11.422;2024-03-23T13:39:37;96345.53;;;6.95;89.39
17054;BME280;8643;48.824;11.422;2024-03-23T13:42:04;96339.44;;;6.98;90.53
17054;BME280;8643;48.824;11.422;2024-03-23T13:44:32;96344.41;;;6.96;91.10
17054;BME280;8643;48.824;11.422;2024-03-23T13:46:58;96338.16;;;6.87;91.60
17054;BME280;8643;48.824;11.422;2024-03-23T13:49:27;96344.25;;;7.01;92.39
17054;BME280;8643;48.824;11.422;2024-03-23T13:51:56;96331.34;;;7.37;91.13
17054;BME280;8643;48.824;11.422;2024-03-23T13:54:24;96351.97;;;7.46;91.07
17054;BME280;8643;48.824;11.422;2024-03-23T13:56:53;96340.53;;;7.62;92.39
17054;BME280;8643;48.824;11.422;2024-03-23T13:59:22;96353.56;;;7.86;90.04
17054;BME280;8643;48.824;11.422;2024-03-23T14:01:49;96334.50;;;7.77;89.40